sensor_id;sensor_type;location;lat;lon;timestamp;pressure;altitude;pressure_sealevel;temperature;humidity
41467;BME280;27205;53.690;19.948;2023-04-06T00:03:12;100646.34;;;3.35;56.63
41467;BME280;27205;53.690;19.948;2023-04-06T00:08:15;100647.83;;;3.34;56.65
41467;BME280;27205;53.690;19.948;2023-04-06T00:13:19;100646.31;;;3.30;56.86
41467;BME280;27205;53.690;19.948;2023-04-06T00:18:22;100642.19;;;3.22;57.32
41467;BME280;27205;53.690;19.948;2023-04-06T00:23:26;100639.64;;;3.21;57.26
41467;BME280;27205;53.690;19.948;2023-04-06T00:28:29;100633.64;;;3.22;57.09
41467;BME280;27205;53.690;19.948;2023-04-06T00:33:33;100633.05;;;3.27;57.12
41467;BME280;27205;53.690;19.948;2023-04-06T00:38:36;100627.49;;;3.29;57.06
41467;BME280;27205;53.690;19.948;2023-04-06T00:43:40;100631.03;;;3.26;57.55
41467;BME280;27205;53.690;19.948;2023-04-06T00:48:43;100629.88;;;3.24;57.65
41467;BME280;27205;53.690;19.948;2023-04-06T00:53:47;100631.77;;;3.21;57.94
41467;BME280;27205;53.690;19.948;2023-04-06T00:58:51;100623.66;;;3.24;57.58
41467;BME280;27205;53.690;19.948;2023-04-06T01:03:55;100619.40;;;3.38;57.34
41467;BME280;27205;53.690;19.948;2023-04-06T01:08:59;100616.96;;;3.41;57.37
41467;BME280;27205;53.690;19.948;2023-04-06T01:14:03;100615.84;;;3.43;57.48
41467;BME280;27205;53.690;19.948;2023-04-06T01:19:10;100616.99;;;3.44;57.49
41467;BME280;27205;53.690;19.948;2023-04-06T01:24:14;100615.89;;;3.45;57.78
41467;BME280;27205;53.690;19.948;2023-04-06T01:29:18;100614.27;;;3.44;57.89
41467;BME280;27205;53.690;19.948;2023-04-06T01:34:22;100607.27;;;3.38;58.20
41467;BME280;27205;53.690;19.948;2023-04-06T01:39:26;100607.53;;;3.34;58.12
41467;BME280;27205;53.690;19.948;2023-04-06T01:44:29;100607.37;;;3.36;58.17
41467;BME280;27205;53.690;19.948;2023-04-06T01:49:33;100609.67;;;3.37;58.19
41467;BME280;27205;53.690;19.948;2023-04-06T01:54:37;100611.10;;;3.35;58.62
41467;BME280;27205;53.690;19.948;2023-04-06T01:59:40;100612.64;;;3.31;58.70
41467;BME280;27205;53.690;19.948;2023-04-06T02:04:44;100613.27;;;3.27;59.03
41467;BME280;27205;53.690;19.948;2023-04-06T02:09:48;100609.86;;;3.28;58.87
41467;BME280;27205;53.690;19.948;2023-04-06T02:14:51;100605.95;;;3.28;58.90
41467;BME280;27205;53.690;19.948;2023-04-06T02:19:55;100603.55;;;3.28;59.13
41467;BME280;27205;53.690;19.948;2023-04-06T02:24:58;100607.36;;;3.29;59.15
41467;BME280;27205;53.690;19.948;2023-04-06T02:30:03;100605.99;;;3.24;59.52
41467;BME280;27205;53.690;19.948;2023-04-06T02:35:07;100601.95;;;3.24;59.37
41467;BME280;27205;53.690;19.948;2023-04-06T02:40:11;100603.74;;;3.25;59.59
41467;BME280;27205;53.690;19.948;2023-04-06T02:45:15;100604.27;;;3.18;59.85
41467;BME280;27205;53.690;19.948;2023-04-06T02:50:19;100601.60;;;3.13;60.14
41467;BME280;27205;53.690;19.948;2023-04-06T02:55:22;100600.80;;;3.16;60.01
41467;BME280;27205;53.690;19.948;2023-04-06T03:00:26;100600.06;;;3.19;60.06
41467;BME280;27205;53.690;19.948;2023-04-06T03:05:29;100599.08;;;3.16;60.26
41467;BME280;27205;53.690;19.948;2023-04-06T03:10:33;100602.38;;;3.13;60.38
41467;BME280;27205;53.690;19.948;2023-04-06T03:15:37;100606.91;;;3.11;60.57
41467;BME280;27205;53.690;19.948;2023-04-06T03:20:41;100598.06;;;3.10;60.84
41467;BME280;27205;53.690;19.948;2023-04-06T03:25:44;100603.48;;;3.04;61.71
41467;BME280;27205;53.690;19.948;2023-04-06T03:30:48;100608.60;;;2.98;61.45
41467;BME280;27205;53.690;19.948;2023-04-06T03:35:53;100613.65;;;2.97;61.75
41467;BME280;27205;53.690;19.948;2023-04-06T03:40:57;100618.14;;;2.98;62.30
41467;BME280;27205;53.690;19.948;2023-04-06T03:46:00;100619.52;;;3.03;62.09
41467;BME280;27205;53.690;19.948;2023-04-06T03:51:04;100619.04;;;3.04;62.16
41467;BME280;27205;53.690;19.948;2023-04-06T03:56:08;100618.88;;;3.04;62.62
41467;BME280;27205;53.690;19.948;2023-04-06T04:01:11;100623.70;;;3.04;62.26
41467;BME280;27205;53.690;19.948;2023-04-06T04:06:15;100621.60;;;3.04;62.58
41467;BME280;27205;53.690;19.948;2023-04-06T04:11:18;100621.41;;;3.06;62.58
41467;BME280;27205;53.690;19.948;2023-04-06T04:16:22;100620.80;;;3.08;62.72
41467;BME280;27205;53.690;19.948;2023-04-06T04:21:27;100620.27;;;3.05;63.11
41467;BME280;27205;53.690;19.948;2023-04-06T04:26:31;100624.48;;;3.04;63.44
41467;BME280;27205;53.690;19.948;2023-04-06T04:31:34;100626.61;;;3.00;63.44
41467;BME280;27205;53.690;19.948;2023-04-06T04:36:38;100629.48;;;3.01;63.71
41467;BME280;27205;53.690;19.948;2023-04-06T04:41:44;100626.16;;;2.99;63.97
41467;BME280;27205;53.690;19.948;2023-04-06T04:46:48;100627.08;;;3.00;64.01
41467;BME280;27205;53.690;19.948;2023-04-06T04:51:51;100627.83;;;3.03;64.38
41467;BME280;27205;53.690;19.948;2023-04-06T04:56:55;100626.83;;;3.02;64.79
41467;BME280;27205;53.690;19.948;2023-04-06T05:01:59;100626.78;;;3.06;64.84
41467;BME280;27205;53.690;19.948;2023-04-06T05:07:06;100625.81;;;3.11;64.92
41467;BME280;27205;53.690;19.948;2023-04-06T05:12:10;100626.02;;;3.14;65.26
41467;BME280;27205;53.690;19.948;2023-04-06T05:17:13;100631.30;;;3.20;65.27
41467;BME280;27205;53.690;19.948;2023-04-06T05:22:17;100631.77;;;3.23;65.13
41467;BME280;27205;53.690;19.948;2023-04-06T05:27:20;100633.41;;;3.28;65.49
41467;BME280;27205;53.690;19.948;2023-04-06T05:32:24;100630.23;;;3.30;65.79
41467;BME280;27205;53.690;19.948;2023-04-06T05:37:28;100631.54;;;3.37;65.74
41467;BME280;27205;53.690;19.948;2023-04-06T05:42:39;100627.66;;;3.50;66.14
41467;BME280;27205;53.690;19.948;2023-04-06T05:47:43;100623.92;;;3.57;66.04
41467;BME280;27205;53.690;19.948;2023-04-06T05:52:49;100619.87;;;3.65;66.19
41467;BME280;27205;53.690;19.948;2023-04-06T05:57:52;100627.28;;;3.77;66.22
41467;BME280;27205;53.690;19.948;2023-04-06T06:02:56;100625.73;;;3.89;66.42
41467;BME280;27205;53.690;19.948;2023-04-06T06:07:59;100623.35;;;4.09;66.12
41467;BME280;27205;53.690;19.948;2023-04-06T06:13:05;100634.98;;;4.25;66.23
41467;BME280;27205;53.690;19.948;2023-04-06T06:18:09;100631.14;;;4.43;66.05
41467;BME280;27205;53.690;19.948;2023-04-06T06:23:14;100627.67;;;4.66;65.99
41467;BME280;27205;53.690;19.948;2023-04-06T06:28:17;100621.39;;;4.88;65.89
41467;BME280;27205;53.690;19.948;2023-04-06T06:33:21;100620.64;;;5.22;65.56
41467;BME280;27205;53.690;19.948;2023-04-06T06:38:25;100622.12;;;5.52;65.14
41467;BME280;27205;53.690;19.948;2023-04-06T06:43:28;100620.15;;;5.65;64.59
41467;BME280;27205;53.690;19.948;2023-04-06T06:48:32;100618.59;;;5.81;64.58
41467;BME280;27205;53.690;19.948;2023-04-06T06:53:36;100612.65;;;5.81;64.19
41467;BME280;27205;53.690;19.948;2023-04-06T06:58:39;100609.67;;;5.69;63.91
41467;BME280;27205;53.690;19.948;2023-04-06T07:03:43;100621.12;;;5.67;62.08
41467;BME280;27205;53.690;19.948;2023-04-06T07:08:47;100615.11;;;5.55;62.09
41467;BME280;27205;53.690;19.948;2023-04-06T07:13:51;100619.66;;;5.53;61.53
41467;BME280;27205;53.690;19.948;2023-04-06T07:18:54;100619.12;;;5.46;61.27
41467;BME280;27205;53.690;19.948;2023-04-06T07:23:58;100619.86;;;5.40;60.80
41467;BME280;27205;53.690;19.948;2023-04-06T07:29:02;100610.83;;;5.42;61.05
41467;BME280;27205;53.690;19.948;2023-04-06T07:34:06;100604.39;;;5.44;60.58
41467;BME280;27205;53.690;19.948;2023-04-06T07:39:10;100605.55;;;5.41;59.80
41467;BME280;27205;53.690;19.948;2023-04-06T07:44:13;100605.82;;;5.51;59.25
41467;BME280;27205;53.690;19.948;2023-04-06T07:49:18;100601.05;;;5.71;58.64
41467;BME280;27205;53.690;19.948;2023-04-06T07:58:58;100604.04;;;6.02;57.91
41467;BME280;27205;53.690;19.948;2023-04-06T08:04:02;100607.02;;;6.15;57.83
41467;BME280;27205;53.690;19.948;2023-04-06T08:09:06;100603.54;;;6.34;57.00
41467;BME280;27205;53.690;19.948;2023-04-06T08:14:09;100600.01;;;6.34;55.22
41467;BME280;27205;53.690;19.948;2023-04-06T08:19:13;100600.64;;;6.27;53.26
41467;BME280;27205;53.690;19.948;2023-04-06T08:24:20;100596.02;;;6.15;53.32
41467;BME280;27205;53.690;19.948;2023-04-06T08:29:24;100592.77;;;5.94;53.39
41467;BME280;27205;53.690;19.948;2023-04-06T08:34:27;100589.34;;;5.94;53.01
41467;BME280;27205;53.690;19.948;2023-04-06T08:39:31;100590.77;;;6.00;53.21
41467;BME280;27205;53.690;19.948;2023-04-06T08:44:36;100589.48;;;6.17;53.41
41467;BME280;27205;53.690;19.948;2023-04-06T08:49:42;100586.01;;;6.25;53.61
41467;BME280;27205;53.690;19.948;2023-04-06T08:54:47;100586.17;;;6.35;52.84
41467;BME280;27205;53.690;19.948;2023-04-06T08:59:51;100590.67;;;6.53;52.51
41467;BME280;27205;53.690;19.948;2023-04-06T09:04:55;100592.97;;;6.74;52.59
41467;BME280;27205;53.690;19.948;2023-04-06T09:09:59;100586.55;;;6.81;52.58
41467;BME280;27205;53.690;19.948;2023-04-06T09:15:03;100585.34;;;6.88;52.15
41467;BME280;27205;53.690;19.948;2023-04-06T09:20:07;100582.74;;;7.07;52.43
41467;BME280;27205;53.690;19.948;2023-04-06T09:25:18;100587.23;;;7.33;51.97
41467;BME280;27205;53.690;19.948;2023-04-06T09:30:23;100588.55;;;7.36;51.74
41467;BME280;27205;53.690;19.948;2023-04-06T09:35:28;100590.91;;;7.32;52.14
41467;BME280;27205;53.690;19.948;2023-04-06T09:40:33;100594.23;;;7.01;52.24
41467;BME280;27205;53.690;19.948;2023-04-06T09:45:37;100580.52;;;6.87;52.31
41467;BME280;27205;53.690;19.948;2023-04-06T09:50:40;100578.39;;;7.00;52.15
41467;BME280;27205;53.690;19.948;2023-04-06T09:55:48;100571.27;;;7.06;51.50
41467;BME280;27205;53.690;19.948;2023-04-06T10:01:05;100572.12;;;7.03;51.50
41467;BME280;27205;53.690;19.948;2023-04-06T10:06:25;100575.67;;;7.11;51.62
41467;BME280;27205;53.690;19.948;2023-04-06T10:12:05;100574.08;;;7.18;51.38
41467;BME280;27205;53.690;19.948;2023-04-06T10:17:09;100569.25;;;7.20;51.48
41467;BME280;27205;53.690;19.948;2023-04-06T10:22:21;100562.52;;;7.57;51.51
41467;BME280;27205;53.690;19.948;2023-04-06T10:27:29;100552.37;;;7.74;50.97
41467;BME280;27205;53.690;19.948;2023-04-06T10:32:35;100554.31;;;7.83;50.96
41467;BME280;27205;53.690;19.948;2023-04-06T10:37:49;100552.16;;;7.81;50.58
41467;BME280;27205;53.690;19.948;2023-04-06T10:42:54;100558.30;;;7.72;50.51
41467;BME280;27205;53.690;19.948;2023-04-06T10:47:58;100543.24;;;7.71;50.38
41467;BME280;27205;53.690;19.948;2023-04-06T10:53:46;100532.03;;;7.55;50.40
41467;BME280;27205;53.690;19.948;2023-04-06T11:00:04;100530.33;;;7.40;50.58
41467;BME280;27205;53.690;19.948;2023-04-06T11:05:28;100532.00;;;7.25;50.92
41467;BME280;27205;53.690;19.948;2023-04-06T11:10:48;100527.77;;;6.97;51.33
41467;BME280;27205;53.690;19.948;2023-04-06T11:15:52;100515.71;;;6.92;51.43
41467;BME280;27205;53.690;19.948;2023-04-06T11:20:56;100512.44;;;6.88;51.92
41467;BME280;27205;53.690;19.948;2023-04-06T11:26:01;100509.58;;;6.78;52.14
41467;BME280;27205;53.690;19.948;2023-04-06T11:31:06;100510.00;;;6.82;52.34
41467;BME280;27205;53.690;19.948;2023-04-06T11:36:09;100501.67;;;7.10;52.88
41467;BME280;27205;53.690;19.948;2023-04-06T11:41:14;100503.54;;;7.22;52.51
41467;BME280;27205;53.690;19.948;2023-04-06T11:46:18;100499.65;;;7.37;52.43
41467;BME280;27205;53.690;19.948;2023-04-06T11:51:24;100494.88;;;7.76;52.29
41467;BME280;27205;53.690;19.948;2023-04-06T11:56:29;100490.77;;;7.96;52.33
41467;BME280;27205;53.690;19.948;2023-04-06T12:01:33;100491.32;;;8.23;51.82
41467;BME280;27205;53.690;19.948;2023-04-06T12:06:41;100482.94;;;8.54;51.46
41467;BME280;27205;53.690;19.948;2023-04-06T12:11:44;100479.64;;;8.63;51.32
41467;BME280;27205;53.690;19.948;2023-04-06T12:16:49;100477.40;;;8.76;51.36
41467;BME280;27205;53.690;19.948;2023-04-06T12:21:53;100473.23;;;8.74;51.02
41467;BME280;27205;53.690;19.948;2023-04-06T12:26:57;100471.02;;;8.42;50.52
41467;BME280;27205;53.690;19.948;2023-04-06T12:32:10;100468.14;;;8.17;50.43
41467;BME280;27205;53.690;19.948;2023-04-06T12:37:14;100459.28;;;7.83;51.19
41467;BME280;27205;53.690;19.948;2023-04-06T12:42:18;100454.12;;;7.62;51.68
41467;BME280;27205;53.690;19.948;2023-04-06T12:47:24;100460.20;;;7.55;51.79
41467;BME280;27205;53.690;19.948;2023-04-06T12:52:29;100462.73;;;7.33;51.98
41467;BME280;27205;53.690;19.948;2023-04-06T12:57:34;100452.88;;;7.20;52.27
41467;BME280;27205;53.690;19.948;2023-04-06T13:02:38;100448.06;;;7.24;52.35
41467;BME280;27205;53.690;19.948;2023-04-06T13:07:42;100439.81;;;7.30;52.35
41467;BME280;27205;53.690;19.948;2023-04-06T13:12:45;100426.77;;;7.37;52.59
41467;BME280;27205;53.690;19.948;2023-04-06T13:17:48;100428.16;;;7.41;52.53
41467;BME280;27205;53.690;19.948;2023-04-06T13:22:52;100416.89;;;7.43;52.86
41467;BME280;27205;53.690;19.948;2023-04-06T13:27:56;100417.52;;;7.40;52.70
41467;BME280;27205;53.690;19.948;2023-04-06T13:33:00;100417.29;;;7.32;53.13
41467;BME280;27205;53.690;19.948;2023-04-06T13:38:03;100410.50;;;7.23;53.41
41467;BME280;27205;53.690;19.948;2023-04-06T13:43:07;100405.46;;;7.24;53.72
41467;BME280;27205;53.690;19.948;2023-04-06T13:48:11;100404.44;;;7.17;54.06
41467;BME280;27205;53.690;19.948;2023-04-06T13:53:14;100394.53;;;7.13;54.51
41467;BME280;27205;53.690;19.948;2023-04-06T13:58:18;100393.29;;;7.05;54.93
41467;BME280;27205;53.690;19.948;2023-04-06T14:03:22;100399.05;;;6.95;55.16
41467;BME280;27205;53.690;19.948;2023-04-06T14:08:26;100398.95;;;6.79;55.74
41467;BME280;27205;53.690;19.948;2023-04-06T14:13:29;100397.02;;;6.58;56.42
41467;BME280;27205;53.690;19.948;2023-04-06T14:18:33;100391.05;;;6.51;56.79
41467;BME280;27205;53.690;19.948;2023-04-06T14:23:38;100398.21;;;6.34;57.76
41467;BME280;27205;53.690;19.948;2023-04-06T14:28:46;100390.30;;;6.25;58.29
41467;BME280;27205;53.690;19.948;2023-04-06T14:33:50;100387.54;;;6.24;58.51
41467;BME280;27205;53.690;19.948;2023-04-06T14:38:54;100381.67;;;6.27;58.52
41467;BME280;27205;53.690;19.948;2023-04-06T14:43:58;100374.50;;;6.23;59.02
41467;BME280;27205;53.690;19.948;2023-04-06T14:49:01;100368.70;;;6.15;59.89
41467;BME280;27205;53.690;19.948;2023-04-06T14:54:08;100371.05;;;6.18;59.58
41467;BME280;27205;53.690;19.948;2023-04-06T14:59:11;100360.25;;;6.27;59.92
41467;BME280;27205;53.690;19.948;2023-04-06T15:04:16;100361.52;;;6.30;59.90
41467;BME280;27205;53.690;19.948;2023-04-06T15:09:20;100359.77;;;6.34;60.22
41467;BME280;27205;53.690;19.948;2023-04-06T15:14:24;100362.75;;;6.31;60.22
41467;BME280;27205;53.690;19.948;2023-04-06T15:19:27;100364.18;;;6.30;60.52
41467;BME280;27205;53.690;19.948;2023-04-06T15:24:31;100351.60;;;6.17;61.19
41467;BME280;27205;53.690;19.948;2023-04-06T15:29:34;100347.06;;;6.09;61.06
41467;BME280;27205;53.690;19.948;2023-04-06T15:34:38;100351.99;;;6.00;61.41
41467;BME280;27205;53.690;19.948;2023-04-06T15:39:42;100350.80;;;5.82;61.88
41467;BME280;27205;53.690;19.948;2023-04-06T15:44:46;100345.98;;;5.67;62.17
41467;BME280;27205;53.690;19.948;2023-04-06T15:49:49;100340.16;;;5.52;62.76
41467;BME280;27205;53.690;19.948;2023-04-06T15:54:53;100333.70;;;5.42;63.10
41467;BME280;27205;53.690;19.948;2023-04-06T15:59:57;100330.08;;;5.47;62.92
41467;BME280;27205;53.690;19.948;2023-04-06T16:05:01;100325.41;;;5.53;63.08
41467;BME280;27205;53.690;19.948;2023-04-06T16:10:06;100333.80;;;5.54;62.92
41467;BME280;27205;53.690;19.948;2023-04-06T16:15:10;100336.46;;;5.60;63.01
41467;BME280;27205;53.690;19.948;2023-04-06T16:20:14;100332.20;;;5.65;63.04
41467;BME280;27205;53.690;19.948;2023-04-06T16:25:18;100328.73;;;5.61;62.92
41467;BME280;27205;53.690;19.948;2023-04-06T16:30:21;100329.59;;;5.54;62.45
41467;BME280;27205;53.690;19.948;2023-04-06T16:35:26;100325.21;;;5.55;62.18
41467;BME280;27205;53.690;19.948;2023-04-06T16:40:30;100325.55;;;5.50;62.32
41467;BME280;27205;53.690;19.948;2023-04-06T16:45:34;100318.14;;;5.40;62.37
41467;BME280;27205;53.690;19.948;2023-04-06T16:50:37;100321.14;;;5.29;62.34
41467;BME280;27205;53.690;19.948;2023-04-06T16:55:42;100324.09;;;5.19;62.38
41467;BME280;27205;53.690;19.948;2023-04-06T17:00:45;100322.33;;;5.07;62.68
41467;BME280;27205;53.690;19.948;2023-04-06T17:05:51;100327.16;;;5.00;62.71
41467;BME280;27205;53.690;19.948;2023-04-06T17:11:39;100323.61;;;4.88;62.96
41467;BME280;27205;53.690;19.948;2023-04-06T17:16:49;100320.35;;;4.72;63.27
41467;BME280;27205;53.690;19.948;2023-04-06T17:21:53;100328.71;;;4.61;63.26
41467;BME280;27205;53.690;19.948;2023-04-06T17:26:56;100342.92;;;4.59;63.87
41467;BME280;27205;53.690;19.948;2023-04-06T17:32:00;100358.23;;;4.57;63.66
41467;BME280;27205;53.690;19.948;2023-04-06T17:37:21;100348.70;;;4.57;63.53
41467;BME280;27205;53.690;19.948;2023-04-06T17:42:46;100342.20;;;4.52;63.83
41467;BME280;27205;53.690;19.948;2023-04-06T17:47:49;100358.13;;;4.50;64.03
41467;BME280;27205;53.690;19.948;2023-04-06T18:13:41;100339.72;;;4.67;65.35
41467;BME280;27205;53.690;19.948;2023-04-06T18:18:47;100344.55;;;4.78;65.19
41467;BME280;27205;53.690;19.948;2023-04-06T18:45:43;100349.90;;;5.01;66.74
41467;BME280;27205;53.690;19.948;2023-04-06T18:50:56;100353.78;;;4.95;67.64
41467;BME280;27205;53.690;19.948;2023-04-06T18:56:25;100353.46;;;4.88;67.48
41467;BME280;27205;53.690;19.948;2023-04-06T19:02:17;100352.46;;;4.61;69.03
41467;BME280;27205;53.690;19.948;2023-04-06T19:07:25;100358.13;;;4.50;69.68
41467;BME280;27205;53.690;19.948;2023-04-06T19:12:29;100361.42;;;4.45;69.76
41467;BME280;27205;53.690;19.948;2023-04-06T19:17:33;100366.27;;;4.41;70.52
41467;BME280;27205;53.690;19.948;2023-04-06T19:22:37;100363.64;;;4.43;70.15
41467;BME280;27205;53.690;19.948;2023-04-06T19:27:41;100367.30;;;4.40;70.07
41467;BME280;27205;53.690;19.948;2023-04-06T19:32:53;100368.58;;;4.42;70.95
41467;BME280;27205;53.690;19.948;2023-04-06T19:38:05;100357.63;;;4.40;71.28
41467;BME280;27205;53.690;19.948;2023-04-06T19:43:19;100351.89;;;4.39;71.20
41467;BME280;27205;53.690;19.948;2023-04-06T20:00:45;100349.19;;;4.49;71.53
41467;BME280;27205;53.690;19.948;2023-04-06T20:05:57;100339.37;;;4.49;71.48
41467;BME280;27205;53.690;19.948;2023-04-06T20:29:59;100327.67;;;4.80;73.16
41467;BME280;27205;53.690;19.948;2023-04-06T20:35:03;100322.04;;;4.77;73.30
41467;BME280;27205;53.690;19.948;2023-04-06T20:40:07;100313.77;;;4.71;73.47
41467;BME280;27205;53.690;19.948;2023-04-06T20:45:11;100314.28;;;4.60;74.02
41467;BME280;27205;53.690;19.948;2023-04-06T20:50:14;100309.98;;;4.54;74.16
41467;BME280;27205;53.690;19.948;2023-04-06T20:55:18;100302.77;;;4.48;74.82
41467;BME280;27205;53.690;19.948;2023-04-06T21:00:21;100300.46;;;4.43;75.20
41467;BME280;27205;53.690;19.948;2023-04-06T21:05:25;100302.91;;;4.37;75.52
41467;BME280;27205;53.690;19.948;2023-04-06T21:10:29;100300.69;;;4.35;75.78
41467;BME280;27205;53.690;19.948;2023-04-06T21:15:32;100294.76;;;4.36;75.68
41467;BME280;27205;53.690;19.948;2023-04-06T21:20:36;100288.27;;;4.40;75.51
41467;BME280;27205;53.690;19.948;2023-04-06T21:25:40;100281.81;;;4.40;75.74
41467;BME280;27205;53.690;19.948;2023-04-06T21:30:43;100270.73;;;4.38;75.85
41467;BME280;27205;53.690;19.948;2023-04-06T21:35:47;100265.81;;;4.38;76.25
41467;BME280;27205;53.690;19.948;2023-04-06T21:40:55;100260.27;;;4.39;76.68
41467;BME280;27205;53.690;19.948;2023-04-06T21:45:58;100255.75;;;4.34;77.62
41467;BME280;27205;53.690;19.948;2023-04-06T21:51:02;100253.48;;;4.32;77.67
41467;BME280;27205;53.690;19.948;2023-04-06T21:56:06;100242.58;;;4.31;77.58
41467;BME280;27205;53.690;19.948;2023-04-06T22:01:10;100238.10;;;4.33;77.52
41467;BME280;27205;53.690;19.948;2023-04-06T22:06:13;100231.73;;;4.33;78.54
41467;BME280;27205;53.690;19.948;2023-04-06T22:11:17;100230.67;;;4.41;77.79
41467;BME280;27205;53.690;19.948;2023-04-06T22:16:20;100229.96;;;4.39;77.80
41467;BME280;27205;53.690;19.948;2023-04-06T22:21:24;100225.37;;;4.38;78.31
41467;BME280;27205;53.690;19.948;2023-04-06T22:26:28;100222.23;;;4.39;78.45
41467;BME280;27205;53.690;19.948;2023-04-06T22:31:32;100218.52;;;4.42;78.62
41467;BME280;27205;53.690;19.948;2023-04-06T22:36:35;100212.02;;;4.43;79.10
41467;BME280;27205;53.690;19.948;2023-04-06T22:41:39;100211.11;;;4.46;78.84
41467;BME280;27205;53.690;19.948;2023-04-06T22:46:42;100204.96;;;4.49;78.77
41467;BME280;27205;53.690;19.948;2023-04-06T22:51:46;100206.51;;;4.57;78.94
41467;BME280;27205;53.690;19.948;2023-04-06T22:56:49;100195.70;;;4.63;78.66
41467;BME280;27205;53.690;19.948;2023-04-06T23:01:53;100195.91;;;4.63;79.03
41467;BME280;27205;53.690;19.948;2023-04-06T23:06:59;100190.98;;;4.65;79.26
41467;BME280;27205;53.690;19.948;2023-04-06T23:12:02;100190.26;;;4.62;79.77
41467;BME280;27205;53.690;19.948;2023-04-06T23:17:06;100186.58;;;4.59;79.79
41467;BME280;27205;53.690;19.948;2023-04-06T23:22:11;100186.47;;;4.67;79.81
41467;BME280;27205;53.690;19.948;2023-04-06T23:27:15;100183.11;;;4.71;79.95
41467;BME280;27205;53.690;19.948;2023-04-06T23:32:18;100175.13;;;4.76;79.64
41467;BME280;27205;53.690;19.948;2023-04-06T23:37:22;100172.81;;;4.75;80.62
41467;BME280;27205;53.690;19.948;2023-04-06T23:42:26;100175.29;;;4.72;80.48
41467;BME280;27205;53.690;19.948;2023-04-06T23:47:31;100171.91;;;4.73;80.77
41467;BME280;27205;53.690;19.948;2023-04-06T23:52:34;100165.57;;;4.75;80.58
41467;BME280;27205;53.690;19.948;2023-04-06T23:57:38;100157.61;;;4.78;80.43
